Time;durP1;ratioP1;P1;durP2;ratioP2;P2;SDS_P1;SDS_P2;PMS_P1;PMS_P2;Temp;Humidity;BMP_temperature;BMP_pressure;BME280_temperature;BME280_humidity;BME280_pressure;Samples;Min_cycle;Max_cycle;Signal;HPM_P1;HPM_P2
2022/02/12 00:02:10;;;;;;;12.10;7.00;;;;;;;-0.18;90.22;103418.50;5054422;28;20087;-35
2022/02/12 00:04:35;;;;;;;15.50;7.80;;;;;;;-0.22;90.45;103421.47;5054720;28;20103;-34
2022/02/12 00:07:01;;;;;;;13.27;7.27;;;;;;;-0.19;91.49;103410.63;5055308;28;20029;-35
2022/02/12 00:09:26;;;;;;;17.10;7.50;;;;;;;-0.31;90.71;103407.78;5055436;28;20117;-35
2022/02/12 00:11:52;;;;;;;11.98;7.18;;;;;;;-0.28;90.52;103412.91;5054717;28;20111;-34
2022/02/12 00:14:17;;;;;;;14.75;6.53;;;;;;;-0.24;90.17;103412.72;5054860;28;20473;-34
2022/02/12 00:16:42;;;;;;;13.07;6.83;;;;;;;-0.30;90.50;103398.84;5054521;28;20039;-34
2022/02/12 00:19:08;;;;;;;11.33;6.17;;;;;;;-0.24;90.32;103412.72;5054920;28;20029;-35
2022/02/12 00:21:33;;;;;;;14.30;6.23;;;;;;;-0.27;91.25;103411.09;5054999;28;20395;-34
2022/02/12 00:23:59;;;;;;;13.53;5.73;;;;;;;-0.20;91.54;103406.25;5053249;28;20071;-34
2022/02/12 00:26:25;;;;;;;14.30;6.25;;;;;;;-0.21;92.24;103397.41;5055378;28;20017;-34
2022/02/12 00:28:50;;;;;;;12.77;5.90;;;;;;;-0.21;91.92;103401.88;5054123;28;20032;-34
2022/02/12 00:31:15;;;;;;;10.97;6.37;;;;;;;-0.27;91.12;103403.97;5054808;28;20345;-34
2022/02/12 00:33:41;;;;;;;14.37;5.77;;;;;;;-0.24;90.97;103394.09;5054488;28;20358;-35
2022/02/12 00:36:06;;;;;;;10.50;5.13;;;;;;;-0.38;90.60;103376.38;5054750;28;20032;-35
2022/02/12 00:38:32;;;;;;;11.47;5.70;;;;;;;-0.30;90.72;103392.69;5053139;28;20040;-35
2022/02/12 00:40:57;;;;;;;10.00;5.93;;;;;;;-0.39;91.87;103372.88;5054831;28;20025;-36
2022/02/12 00:43:22;;;;;;;13.43;6.33;;;;;;;-0.33;91.59;103391.09;5053904;28;20032;-35
2022/02/12 00:45:48;;;;;;;12.20;6.47;;;;;;;-0.36;90.78;103385.09;5054041;28;20032;-35
2022/02/12 00:48:14;;;;;;;;;;;;;;;-0.28;90.06;103378.34;5054261;28;20115;-35
2022/02/12 00:50:39;;;;;;;15.65;7.18;;;;;;;-0.45;90.88;103378.56;5054346;28;19964;-35
2022/02/12 00:53:04;;;;;;;15.87;6.60;;;;;;;-0.72;90.26;103349.28;5053377;28;20052;-36
2022/02/12 00:55:30;;;;;;;11.00;6.53;;;;;;;-0.49;90.26;103382.34;5053548;28;20040;-35
2022/02/12 00:57:55;;;;;;;12.03;6.90;;;;;;;-0.51;91.16;103365.66;5054065;28;20025;-35
2022/02/12 01:00:21;;;;;;;15.80;6.10;;;;;;;-0.49;91.30;103369.06;5053705;28;20025;-35
2022/02/12 01:02:47;;;;;;;15.88;7.68;;;;;;;-0.61;91.36;103351.25;5054373;28;20033;-35
2022/02/12 01:05:12;;;;;;;11.80;6.32;;;;;;;-0.54;90.83;103364.06;5053659;28;20114;-35
2022/02/12 01:07:38;;;;;;;14.88;6.80;;;;;;;-0.56;90.88;103360.63;5053588;28;20029;-35
2022/02/12 01:10:04;;;;;;;11.10;6.53;;;;;;;-0.68;90.35;103357.88;5054285;28;20036;-35
2022/02/12 01:12:29;;;;;;;12.93;5.40;;;;;;;-0.60;90.60;103358.25;5053439;28;20032;-35
2022/02/12 01:14:55;;;;;;;15.30;6.80;;;;;;;-0.61;90.99;103356.56;5053772;28;20021;-35
2022/02/12 01:17:20;;;;;;;14.53;6.53;;;;;;;-0.64;91.28;103351.44;5053503;28;20029;-35
2022/02/12 01:19:49;;;;;;;16.43;5.53;;;;;;;-0.66;91.04;103358.66;5052696;28;20041;-35
2022/02/12 01:22:16;;;;;;;10.60;5.65;;;;;;;-0.68;91.24;103355.22;5053266;28;20037;-35
2022/02/12 01:24:42;;;;;;;12.40;5.95;;;;;;;-0.76;91.47;103328.28;5053813;28;20025;-35
2022/02/12 01:27:08;;;;;;;11.40;5.45;;;;;;;-0.67;91.36;103346.31;5053003;28;20032;-35
2022/02/12 01:29:33;;;;;;;10.30;5.23;;;;;;;-0.68;91.13;103344.59;5053799;28;20033;-35
2022/02/12 01:32:03;;;;;;;10.30;4.67;;;;;;;-0.71;92.08;103334.19;5053140;28;20373;-35
2022/02/12 01:34:31;;;;;;;10.50;5.25;;;;;;;-0.69;92.04;103338.44;5053641;28;20392;-35
2022/02/12 01:36:56;;;;;;;13.93;5.57;;;;;;;-0.80;90.99;103339.09;5053033;28;20112;-35
2022/02/12 01:39:21;;;;;;;13.80;4.90;;;;;;;-0.73;91.46;103347.56;5053460;28;20068;-35
2022/02/12 01:41:47;;;;;;;15.20;5.57;;;;;;;-0.82;91.67;103338.34;5053651;28;20039;-35
2022/02/12 01:44:12;;;;;;;11.13;4.77;;;;;;;-0.75;91.85;103343.28;5053063;28;20071;-35
2022/02/12 01:46:38;;;;;;;13.13;5.43;;;;;;;-0.80;91.46;103347.06;5053056;28;20036;-35
2022/02/12 01:49:04;;;;;;;9.15;4.65;;;;;;;-0.76;92.20;103344.25;5053540;28;20377;-35
2022/02/12 01:51:30;;;;;;;11.40;5.53;;;;;;;-0.83;92.22;103328.69;5052990;28;20389;-35
2022/02/12 01:53:56;;;;;;;12.02;6.07;;;;;;;-0.87;92.17;103324.50;5053272;28;20056;-35
2022/02/12 01:56:21;;;;;;;14.15;6.80;;;;;;;-0.82;92.38;103343.66;5052750;28;20032;-35
2022/02/12 01:58:47;;;;;;;12.18;6.00;;;;;;;-0.91;91.95;103323.00;5052863;28;20024;-35
2022/02/12 02:01:13;;;;;;;10.20;5.77;;;;;;;-0.83;92.07;103334.00;5053714;28;20040;-35
2022/02/12 02:03:39;;;;;;;13.45;6.70;;;;;;;-0.87;92.03;103336.94;5053001;28;20025;-35
2022/02/12 02:06:05;;;;;;;12.53;6.80;;;;;;;-0.86;92.27;103331.53;5055955;28;20048;-35
2022/02/12 02:08:30;;;;;;;13.60;6.75;;;;;;;-0.89;91.76;103325.53;5056774;28;20088;-35
2022/02/12 02:10:56;;;;;;;14.40;6.53;;;;;;;-0.85;92.26;103333.22;5057407;28;20070;-35
2022/02/12 02:13:27;;;;;;;14.07;6.78;;;;;;;-0.86;93.18;103318.25;5055315;28;20282;-35
2022/02/12 02:15:52;;;;;;;8.90;5.65;;;;;;;-0.85;93.36;103319.09;5057430;28;20028;-35
2022/02/12 02:18:18;;;;;;;12.50;6.63;;;;;;;-0.88;92.77;103312.19;5056813;28;20028;-35
2022/02/12 02:20:44;;;;;;;8.68;5.38;;;;;;;-0.96;93.93;103276.41;5057601;28;20025;-36
2022/02/12 02:23:10;;;;;;;15.15;7.10;;;;;;;-0.89;93.28;103305.13;5056235;28;20476;-34
2022/02/12 02:25:36;;;;;;;14.05;7.03;;;;;;;-0.92;93.10;103307.16;5055326;28;20447;-35
2022/02/12 02:28:01;;;;;;;13.50;6.40;;;;;;;-0.94;92.62;103301.91;5056332;28;20044;-35
2022/02/12 02:30:27;;;;;;;15.67;6.87;;;;;;;-1.05;92.35;103288.47;5056938;28;20409;-42
2022/02/12 02:32:53;;;;;;;12.10;6.72;;;;;;;-0.96;92.71;103303.84;5056220;28;20041;-35
2022/02/12 02:35:19;;;;;;;10.68;6.30;;;;;;;-1.08;92.49;103283.34;5056554;28;20040;-35
2022/02/12 02:37:45;;;;;;;13.82;7.10;;;;;;;-1.07;92.13;103287.72;5056400;28;20025;-35
2022/02/12 02:40:21;;;;;;;12.50;6.88;;;;;;;-0.99;92.90;103304.00;5056783;28;20028;-36
2022/02/12 02:42:50;;;;;;;11.53;5.57;;;;;;;-0.95;93.37;103294.06;5056029;28;20021;-35
2022/02/12 02:45:16;;;;;;;16.30;6.70;;;;;;;-1.06;92.75;103294.72;5056859;28;20068;-35
2022/02/12 02:47:42;;;;;;;13.05;6.40;;;;;;;-1.06;93.42;103277.00;5056039;28;20096;-35
2022/02/12 02:55:59;;;;;;;;;;;;;;;-0.86;92.88;103282.84;5056983;28;20370;-35
2022/02/12 02:58:22;;;;;;;10.80;5.03;;;;;;;-0.95;92.77;103278.13;5056592;28;20044;-35
2022/02/12 03:00:47;;;;;;;12.30;6.10;;;;;;;-1.03;93.24;103273.28;5056120;28;20029;-35
2022/02/12 03:03:13;;;;;;;13.00;5.57;;;;;;;-1.01;93.43;103266.06;5055866;28;20104;-35
2022/02/12 03:05:38;;;;;;;9.73;5.37;;;;;;;-1.01;93.61;103260.78;5056212;28;20025;-35
2022/02/12 03:08:04;;;;;;;10.27;5.73;;;;;;;-1.07;93.83;103253.19;5055672;28;20033;-35
2022/02/12 03:10:29;;;;;;;17.27;6.63;;;;;;;-1.17;93.19;103228.13;5056706;28;20461;-35
2022/02/12 03:12:54;;;;;;;9.10;5.40;;;;;;;-1.13;93.40;103237.63;5055802;28;20575;-35
2022/02/12 03:15:20;;;;;;;12.37;5.70;;;;;;;-1.11;93.45;103243.72;5055347;28;20470;-35
2022/02/12 03:17:45;;;;;;;14.90;5.20;;;;;;;-1.12;92.98;103242.00;5053357;28;20040;-35
2022/02/12 03:20:11;;;;;;;12.60;6.23;;;;;;;-1.13;93.06;103237.63;5056062;28;20581;-35
2022/02/12 03:22:36;;;;;;;13.40;5.60;;;;;;;-1.21;93.04;103238.13;5055220;28;20051;-35
2022/02/12 03:25:01;;;;;;;10.60;6.47;;;;;;;-1.20;92.85;103239.81;5055611;28;20100;-35
2022/02/12 03:27:27;;;;;;;15.97;6.07;;;;;;;-1.22;93.56;103224.91;5055525;28;20110;-35
2022/02/12 03:29:52;;;;;;;15.93;5.90;;;;;;;-1.13;94.24;103237.63;5055336;28;20397;-35
2022/02/12 03:32:17;;;;;;;15.40;6.43;;;;;;;-1.12;94.35;103237.53;5055437;28;20025;-35
2022/02/12 03:34:43;;;;;;;13.93;6.60;;;;;;;-1.07;94.19;103238.09;5055483;28;20060;-35
2022/02/12 03:37:08;;;;;;;10.68;5.32;;;;;;;-1.11;94.67;103219.81;5055040;28;20040;-35
2022/02/12 03:39:34;;;;;;;9.57;4.70;;;;;;;-0.96;95.25;103234.78;5055350;28;20440;-35
2022/02/12 03:41:59;;;;;;;9.90;4.73;;;;;;;-1.04;94.62;103221.13;5055221;28;20037;-35
2022/02/12 03:44:24;;;;;;;11.07;5.57;;;;;;;-0.98;94.87;103228.69;5055564;28;20028;-35
2022/02/12 03:46:50;;;;;;;10.97;5.60;;;;;;;-1.16;95.02;103192.69;5053931;28;20354;-35
2022/02/12 03:49:15;;;;;;;12.70;6.00;;;;;;;-1.11;93.41;103225.13;5055439;28;20048;-35
2022/02/12 03:51:41;;;;;;;12.83;5.40;;;;;;;-0.99;94.12;103228.78;5055342;28;20036;-35
2022/02/12 03:54:06;;;;;;;11.40;5.03;;;;;;;-0.93;95.07;103239.00;5037517;28;20140;-35
2022/02/12 03:56:31;;;;;;;15.73;6.27;;;;;;;-1.01;94.06;103231.56;5054768;28;20096;-35
2022/02/12 03:58:57;;;;;;;12.13;5.27;;;;;;;-1.02;94.91;103207.72;5054388;28;20450;-35
2022/02/12 04:01:22;;;;;;;11.40;5.73;;;;;;;-1.05;94.58;103212.28;5055166;28;20044;-35
2022/02/12 04:03:48;;;;;;;11.33;5.13;;;;;;;-0.99;94.94;103220.81;5053605;28;20469;-35
2022/02/12 04:06:13;;;;;;;8.82;4.90;;;;;;;-1.12;93.56;103205.69;5054772;28;20056;-35
2022/02/12 04:08:38;;;;;;;13.73;5.57;;;;;;;-1.15;93.63;103197.06;5054515;28;20061;-35
2022/02/12 04:11:04;;;;;;;8.33;4.80;;;;;;;-1.04;95.01;103207.84;5053730;28;20132;-34
2022/02/12 04:13:32;;;;;;;18.52;6.40;;;;;;;-1.07;95.11;103216.00;5054611;28;20358;-34
2022/02/12 04:15:57;;;;;;;8.20;4.60;;;;;;;-1.17;94.72;103198.94;5054639;28;20059;-34
2022/02/12 04:18:23;;;;;;;11.13;5.00;;;;;;;-1.06;95.35;103204.44;5054516;28;20105;-34
2022/02/12 04:20:48;;;;;;;10.47;5.60;;;;;;;-1.01;96.16;103206.81;5054634;28;20025;-34
2022/02/12 04:23:14;;;;;;;11.60;4.67;;;;;;;-1.08;96.19;103193.88;5054623;28;20091;-35
2022/02/12 04:25:39;;;;;;;13.88;5.45;;;;;;;-1.10;95.75;103194.94;5054492;28;20488;-34
2022/02/12 04:28:06;;;;;;;16.67;5.57;;;;;;;-1.16;94.63;103200.66;5053952;28;20461;-35
2022/02/12 04:30:32;;;;;;;13.30;5.28;;;;;;;-1.25;94.53;103202.09;5054356;28;20021;-34
2022/02/12 04:32:58;;;;;;;13.80;5.80;;;;;;;-1.17;94.27;103204.25;5054293;28;20033;-34
2022/02/12 04:35:23;;;;;;;16.48;5.97;;;;;;;-1.25;93.38;103201.22;5054229;28;20044;-34
2022/02/12 04:37:49;;;;;;;13.63;6.10;;;;;;;-1.33;93.63;103199.91;5054258;28;20029;-34
2022/02/12 04:40:14;;;;;;;13.63;5.47;;;;;;;-1.31;94.32;103192.72;5054376;28;20025;-34
2022/02/12 04:42:40;;;;;;;18.77;5.87;;;;;;;-1.34;94.51;103187.56;5054060;28;20020;-34
2022/02/12 04:45:06;;;;;;;14.48;6.78;;;;;;;-1.32;94.19;103196.31;5054110;28;20120;-34
2022/02/12 04:47:32;;;;;;;18.27;5.35;;;;;;;-1.39;94.76;103192.31;5054581;28;20075;-34
2022/02/12 04:49:57;;;;;;;15.30;6.20;;;;;;;-1.46;93.92;103177.75;5052683;28;20021;-34
2022/02/12 04:52:22;;;;;;;19.70;6.53;;;;;;;-1.36;94.17;103188.63;5054084;28;20078;-34
2022/02/12 04:54:48;;;;;;;13.87;6.43;;;;;;;-1.39;94.54;103181.72;5054743;28;20114;-34
2022/02/12 04:57:14;;;;;;;13.70;5.75;;;;;;;-1.40;94.53;103173.84;5054276;28;20087;-35
2022/02/12 04:59:39;;;;;;;19.10;6.37;;;;;;;-1.37;94.18;103185.09;5054597;28;20437;-34
2022/02/12 05:02:05;;;;;;;11.45;5.70;;;;;;;-1.35;95.54;103172.59;5053313;28;20682;-34
2022/02/12 05:04:31;;;;;;;16.02;6.50;;;;;;;-1.38;95.41;103170.13;5054032;28;20171;-34
2022/02/12 05:06:57;;;;;;;17.77;6.07;;;;;;;-1.35;94.84;103166.44;5053702;28;20057;-35
2022/02/12 05:09:23;;;;;;;14.18;7.70;;;;;;;-1.39;94.79;103167.59;5053641;28;20067;-34
2022/02/12 05:11:50;;;;;;;12.97;6.43;;;;;;;-1.40;94.92;103161.44;5053479;28;20091;-34
2022/02/12 05:14:17;;;;;;;14.40;6.20;;;;;;;-1.40;94.31;103150.81;5052994;28;20029;-34
2022/02/12 05:16:43;;;;;;;15.93;7.38;;;;;;;-1.36;94.87;103151.47;5052178;28;20032;-34
2022/02/12 05:19:09;;;;;;;13.00;6.30;;;;;;;-1.37;95.47;103149.75;5053127;28;20370;-34
2022/02/12 05:21:34;;;;;;;15.85;6.47;;;;;;;-1.38;94.90;103148.03;5053643;28;20028;-34
2022/02/12 05:24:00;;;;;;;13.27;5.77;;;;;;;-1.43;95.11;103145.69;5053573;28;20116;-34
2022/02/12 05:26:26;;;;;;;15.53;6.30;;;;;;;-1.43;94.65;103128.91;5053402;28;20017;-34
2022/02/12 05:28:51;;;;;;;12.45;6.65;;;;;;;-1.52;94.90;103111.75;5054020;28;20114;-34
2022/02/12 05:31:16;;;;;;;19.13;6.80;;;;;;;-1.41;94.87;103133.19;5053222;28;20186;-34
2022/02/12 05:33:42;;;;;;;13.73;6.40;;;;;;;-1.42;94.76;103134.09;5053205;28;20044;-34
2022/02/12 05:36:09;;;;;;;17.43;6.47;;;;;;;-1.46;94.93;103134.44;5053965;28;20044;-34
2022/02/12 05:38:39;;;;;;;31.92;8.15;;;;;;;-1.44;94.82;103129.88;5052888;28;20029;-34
2022/02/12 05:41:05;;;;;;;13.50;5.78;;;;;;;-1.44;94.56;103125.41;5052634;28;20032;-34
2022/02/12 05:43:33;;;;;;;;;;;;;;;-1.38;94.80;103122.34;5053461;28;20036;-34
2022/02/12 05:45:59;;;;;;;11.80;5.55;;;;;;;-1.49;95.08;103111.56;5053329;28;19917;-33
2022/02/12 05:48:25;;;;;;;13.10;6.50;;;;;;;-1.44;95.17;103122.75;5052700;28;20099;-34
2022/02/12 05:50:51;;;;;;;18.02;6.78;;;;;;;-1.46;95.25;103114.06;5053816;28;20083;-34
2022/02/12 05:53:16;;;;;;;14.68;6.30;;;;;;;-1.47;95.53;103109.66;5053057;28;20037;-34
2022/02/12 05:55:43;;;;;;;16.33;7.07;;;;;;;-1.54;95.05;103096.91;5053329;28;20485;-34
2022/02/12 05:58:08;;;;;;;15.13;6.60;;;;;;;-1.51;95.42;103097.56;5053008;28;20091;-34
2022/02/12 06:00:34;;;;;;;16.40;6.13;;;;;;;-1.45;95.47;103109.59;5052750;28;20096;-34
2022/02/12 06:03:00;;;;;;;20.90;7.33;;;;;;;-1.50;94.61;103095.75;5053479;28;20029;-34
2022/02/12 06:05:26;;;;;;;13.68;6.93;;;;;;;-1.49;95.34;103100.97;5053458;28;20132;-34
2022/02/12 06:07:51;;;;;;;13.93;6.77;;;;;;;-1.49;94.51;103108.91;5053287;28;20510;-34
2022/02/12 06:10:16;;;;;;;19.13;7.33;;;;;;;-1.56;94.42;103097.00;5052937;28;20025;-34
2022/02/12 06:12:42;;;;;;;23.50;9.40;;;;;;;-1.52;95.43;103101.13;5053166;28;20033;-34
2022/02/12 06:15:09;;;;;;;18.77;6.88;;;;;;;-1.51;95.66;103091.38;5053127;28;20021;-34
2022/02/12 06:17:35;;;;;;;18.02;6.35;;;;;;;-1.48;95.34;103091.19;5053029;28;20033;-34
2022/02/12 06:20:00;;;;;;;16.58;6.65;;;;;;;-1.52;94.48;103085.22;5053119;28;20521;-34
2022/02/12 06:22:27;;;;;;;15.87;6.60;;;;;;;-1.54;94.66;103095.09;5052744;28;20084;-34
2022/02/12 06:24:53;;;;;;;12.25;6.13;;;;;;;-1.50;96.14;103070.06;5053039;28;20056;-34
2022/02/12 06:27:18;;;;;;;18.42;7.35;;;;;;;-1.52;95.71;103076.41;5053002;28;20129;-34
2022/02/12 06:29:44;;;;;;;15.63;7.07;;;;;;;-1.58;95.72;103067.03;5053214;28;20029;-34
2022/02/12 06:32:09;;;;;;;15.88;6.47;;;;;;;-1.57;95.51;103055.47;5052595;28;20035;-34
2022/02/12 06:34:34;;;;;;;15.07;6.40;;;;;;;-1.49;95.78;103065.63;5053163;28;20087;-34
2022/02/12 06:37:01;;;;;;;12.73;6.17;;;;;;;-1.50;96.41;103069.22;5052248;28;20067;-34
2022/02/12 06:39:27;;;;;;;16.63;6.22;;;;;;;-1.47;95.74;103066.34;5052828;28;20025;-34
2022/02/12 06:41:52;;;;;;;15.80;5.90;;;;;;;-1.47;96.43;103063.69;5052203;28;20408;-34
2022/02/12 06:44:17;;;;;;;16.47;6.13;;;;;;;-1.45;95.53;103062.66;5052445;28;20373;-35
2022/02/12 06:46:43;;;;;;;13.50;5.17;;;;;;;-1.37;96.55;103064.81;5052465;28;20071;-34
2022/02/12 06:49:08;;;;;;;11.23;5.03;;;;;;;-1.42;96.86;103046.53;5052216;28;20064;-34
2022/02/12 06:51:34;;;;;;;17.40;6.10;;;;;;;-1.41;95.76;103061.53;5054552;28;20119;-34
2022/02/12 06:53:59;;;;;;;11.63;4.87;;;;;;;-1.48;96.05;103043.44;5056593;28;20048;-34
2022/02/12 06:56:24;;;;;;;15.30;5.70;;;;;;;-1.38;96.64;103065.78;5056404;28;20416;-34
2022/02/12 06:58:50;;;;;;;20.57;6.23;;;;;;;-1.41;96.91;103056.22;5056083;28;20490;-34
2022/02/12 07:01:15;;;;;;;16.63;6.10;;;;;;;-1.34;96.27;103069.94;5055790;28;20037;-34
2022/02/12 07:03:40;;;;;;;12.67;5.50;;;;;;;-1.50;96.52;103038.22;5056150;28;20090;-34
2022/02/12 07:06:06;;;;;;;13.23;4.93;;;;;;;-1.21;97.08;103064.69;5056700;28;20104;-34
2022/02/12 07:08:31;;;;;;;17.23;6.40;;;;;;;-1.25;97.49;103069.34;5056481;28;20446;-34
2022/02/12 07:10:56;;;;;;;11.30;5.60;;;;;;;-1.19;97.30;103065.44;5056373;28;20029;-34
2022/02/12 07:13:22;;;;;;;14.47;6.10;;;;;;;-1.25;96.73;103061.38;5056258;28;20037;-34
2022/02/12 07:15:47;;;;;;;12.17;5.83;;;;;;;-1.26;97.08;103059.69;5056557;28;20036;-34
2022/02/12 07:18:12;;;;;;;9.33;5.33;;;;;;;-1.22;97.77;103047.03;5055726;28;20028;-34
2022/02/12 07:20:38;;;;;;;14.43;5.73;;;;;;;-1.22;96.44;103047.03;5056007;28;20135;-34
2022/02/12 07:23:03;;;;;;;10.83;5.63;;;;;;;-1.14;97.70;103060.66;5055520;28;20029;-34
2022/02/12 07:25:29;;;;;;;11.67;5.60;;;;;;;-1.22;97.03;103050.56;5055534;28;20295;-34
2022/02/12 07:27:56;;;;;;;12.57;5.70;;;;;;;-1.38;96.66;103023.31;5055428;28;20047;-34
2022/02/12 07:30:24;;;;;;;12.35;5.65;;;;;;;-1.15;96.77;103049.19;5056016;28;20033;-34
2022/02/12 07:32:51;;;;;;;13.25;5.70;;;;;;;-1.27;95.32;103047.34;5055392;28;20029;-34
2022/02/12 07:35:17;;;;;;;15.27;6.70;;;;;;;-1.24;96.49;103035.69;5055567;28;20032;-34
2022/02/12 07:37:45;;;;;;;16.48;6.45;;;;;;;-1.18;95.87;103041.44;5054008;28;20056;-34
2022/02/12 07:40:11;;;;;;;11.55;4.93;;;;;;;-1.15;95.87;103041.25;5055055;28;20110;-34
2022/02/12 07:42:37;;;;;;;;;;;;;;;-1.08;95.47;103039.03;5055503;28;20178;-35
2022/02/12 07:45:03;;;;;;;15.13;5.53;;;;;;;-1.12;96.40;103025.13;5055948;28;20394;-35
2022/02/12 07:47:29;;;;;;;12.15;5.47;;;;;;;-1.00;96.28;103034.06;5054988;28;20100;-35
2022/02/12 07:49:54;;;;;;;11.27;5.18;;;;;;;-0.94;95.91;103035.47;5054092;28;20112;-35
2022/02/12 07:52:20;;;;;;;10.97;5.57;;;;;;;-0.86;96.41;103035.81;5055113;28;20027;-35
2022/02/12 07:54:45;;;;;;;13.27;5.57;;;;;;;-0.85;96.05;103034.84;5055659;28;20049;-35
2022/02/12 07:57:11;;;;;;;12.37;5.63;;;;;;;-0.79;95.76;103032.63;5054656;28;20036;-35
2022/02/12 07:59:36;;;;;;;13.67;5.60;;;;;;;-0.86;95.29;103012.75;5054808;28;20029;-35
2022/02/12 08:02:01;;;;;;;15.00;5.77;;;;;;;-0.81;95.56;103028.38;5054025;28;20406;-35
2022/02/12 08:04:28;;;;;;;15.10;5.37;;;;;;;-0.84;95.48;103020.59;5054370;28;20048;-35
2022/02/12 08:09:37;;;;;;;14.48;5.75;;;;;;;-0.79;95.00;103014.00;5055028;28;20368;-35
2022/02/12 08:12:24;;;;;;;12.53;5.57;;;;;;;-0.71;95.09;103025.94;5054666;28;20033;-35
2022/02/12 08:14:50;;;;;;;15.57;5.15;;;;;;;-0.72;94.89;103027.75;5054738;28;20480;-35
2022/02/12 08:17:17;;;;;;;9.80;4.93;;;;;;;-0.77;95.86;103003.31;5054893;28;20116;-35
2022/02/12 08:19:44;;;;;;;12.05;5.47;;;;;;;-0.67;95.46;103014.16;5055124;28;20028;-35
2022/02/12 08:22:10;;;;;;;16.02;5.90;;;;;;;-0.67;95.42;103020.31;5054502;28;20025;-35
2022/02/12 08:24:37;;;;;;;13.85;5.10;;;;;;;-0.62;95.21;103015.53;5055205;28;20028;-35
2022/02/12 08:27:02;;;;;;;11.38;4.78;;;;;;;-0.56;95.62;103006.28;5054509;28;20044;-35
2022/02/12 08:29:28;;;;;;;14.82;4.88;;;;;;;-0.60;95.12;103003.00;5055166;28;20036;-34
2022/02/12 08:31:56;;;;;;;15.98;5.15;;;;;;;-0.57;95.18;103001.94;5054284;28;20029;-34
2022/02/12 08:34:22;;;;;;;12.27;4.68;;;;;;;-0.54;94.95;102999.06;5054273;28;20033;-34
2022/02/12 08:36:48;;;;;;;13.95;5.38;;;;;;;-0.51;94.61;103004.16;5053867;28;20029;-34
2022/02/12 08:39:13;;;;;;;12.00;4.50;;;;;;;-0.48;94.41;102997.81;5054183;28;20044;-35
2022/02/12 08:41:38;;;;;;;11.53;4.43;;;;;;;-0.45;94.48;102995.75;5053333;28;20135;-34
2022/02/12 08:44:04;;;;;;;13.90;4.83;;;;;;;-0.48;94.43;102987.19;5054009;28;20028;-35
2022/02/12 08:46:29;;;;;;;16.73;4.80;;;;;;;-0.36;93.70;102997.78;5054010;28;20043;-35
2022/02/12 08:48:55;;;;;;;17.57;4.67;;;;;;;-0.39;93.84;102995.38;5054017;28;20051;-35
2022/02/12 08:51:20;;;;;;;15.27;4.90;;;;;;;-0.24;94.03;102992.56;5053994;28;20025;-34
2022/02/12 08:53:45;;;;;;;12.67;4.33;;;;;;;-0.26;94.00;102984.69;5054342;28;20134;-34
2022/02/12 08:56:11;;;;;;;13.80;5.17;;;;;;;-0.08;93.05;102994.06;5053887;28;20376;-35
2022/02/12 08:58:36;;;;;;;10.77;4.33;;;;;;;-0.07;92.63;102973.63;5054352;28;20039;-34
2022/02/12 09:01:02;;;;;;;14.60;4.95;;;;;;;0.07;92.34;102986.78;5053773;28;20032;-34
2022/02/12 09:03:27;;;;;;;8.50;3.73;;;;;;;0.20;91.07;102986.75;5053870;28;20116;-34
2022/02/12 09:05:52;;;;;;;11.20;4.20;;;;;;;0.30;91.04;102986.94;5053917;28;20025;-34
2022/02/12 09:08:18;;;;;;;9.63;3.80;;;;;;;0.37;89.66;102994.34;5053299;28;20059;-35
2022/02/12 09:10:43;;;;;;;11.40;4.10;;;;;;;0.38;90.02;102973.91;5053865;28;20045;-34
2022/02/12 09:13:10;;;;;;;15.20;4.53;;;;;;;0.39;88.40;102975.59;5054063;28;20029;-35
2022/02/12 09:15:35;;;;;;;;;;;;;;;0.59;89.93;102990.16;5052661;28;20132;-34
2022/02/12 09:18:01;;;;;;;12.77;4.30;;;;;;;0.65;89.04;102987.88;5053472;28;19967;-34
2022/02/12 09:20:26;;;;;;;;;;;;;;;0.81;88.87;102984.06;5054634;28;20045;-35
2022/02/12 09:22:52;;;;;;;14.77;4.07;;;;;;;0.87;87.58;102970.28;5053007;28;19959;-35
2022/02/12 09:25:17;;;;;;;12.10;3.87;;;;;;;1.00;86.51;102958.56;5053337;28;20059;-35
2022/02/12 09:27:42;;;;;;;16.37;5.00;;;;;;;1.12;85.92;102966.59;5052208;28;20025;-33
2022/02/12 09:30:09;;;;;;;10.80;4.20;;;;;;;1.17;84.93;102959.97;5053608;28;20363;-34
2022/02/12 09:32:34;;;;;;;14.27;5.18;;;;;;;1.20;84.90;102948.19;5053237;28;20118;-34
2022/02/12 09:34:59;;;;;;;12.33;4.37;;;;;;;1.29;84.59;102953.69;5053120;28;20029;-35
2022/02/12 09:37:25;;;;;;;11.53;3.47;;;;;;;1.42;84.49;102942.06;5053214;28;20020;-34
2022/02/12 09:39:51;;;;;;;9.65;3.70;;;;;;;1.34;83.83;102918.66;5052932;28;20036;-34
2022/02/12 09:42:16;;;;;;;17.63;4.82;;;;;;;1.57;83.70;102921.34;5053028;28;20057;-34
2022/02/12 09:44:42;;;;;;;12.88;4.05;;;;;;;1.77;83.71;102934.81;5053158;28;20075;-34
2022/02/12 09:47:36;;;;;;;16.67;4.55;;;;;;;1.83;82.93;102938.78;5053841;28;20028;-34
2022/02/12 09:50:01;;;;;;;12.23;3.95;;;;;;;1.79;83.05;102934.66;5053361;28;20056;-34
2022/02/12 09:52:31;;;;;;;9.80;3.60;;;;;;;1.76;82.68;102922.44;5053174;28;20029;-34
2022/02/12 09:54:57;;;;;;;11.55;4.70;;;;;;;1.69;82.52;102893.69;5053503;28;20049;-34
2022/02/12 09:57:23;;;;;;;10.52;3.67;;;;;;;1.91;83.13;102932.84;5052569;28;20025;-34
2022/02/12 09:59:48;;;;;;;7.90;4.00;;;;;;;1.95;82.52;102927.16;5052347;28;20091;-34
2022/02/12 10:02:17;;;;;;;14.57;4.77;;;;;;;1.96;82.86;102906.66;5052710;28;20029;-34
2022/02/12 10:04:43;;;;;;;10.88;3.70;;;;;;;1.96;81.93;102910.16;5051970;28;20115;-35
2022/02/12 10:07:22;;;;;;;10.47;3.80;;;;;;;2.08;82.81;102907.47;5053004;28;20056;-36
2022/02/12 10:09:47;;;;;;;15.45;3.83;;;;;;;2.15;81.47;102904.19;5052825;28;20025;-33
2022/02/12 10:12:22;;;;;;;13.37;4.20;;;;;;;2.17;81.47;102899.53;5051515;28;20059;-34
2022/02/12 10:14:47;;;;;;;9.90;3.40;;;;;;;2.15;81.70;102888.16;5053523;28;20029;-35
2022/02/12 10:17:17;;;;;;;11.07;3.77;;;;;;;2.18;81.67;102889.72;5052458;28;20025;-34
2022/02/12 10:19:45;;;;;;;9.90;3.28;;;;;;;2.14;81.11;102889.09;5052990;28;20111;-34
2022/02/12 10:22:17;;;;;;;13.10;4.10;;;;;;;2.17;81.67;102888.03;5052638;28;20025;-35
2022/02/12 10:24:55;;;;;;;13.50;3.92;;;;;;;2.14;80.48;102878.44;5053212;28;20408;-34
2022/02/12 10:27:23;;;;;;;11.98;3.53;;;;;;;2.14;81.37;102880.25;5056274;28;20534;-35
2022/02/12 10:29:49;;;;;;;11.55;3.30;;;;;;;2.14;81.68;102881.09;5056379;28;20100;-34
2022/02/12 10:32:16;;;;;;;;;;;;;;;2.17;81.95;102883.53;5057052;28;20055;-35
2022/02/12 10:34:43;;;;;;;12.23;4.30;;;;;;;2.04;80.98;102854.31;5057087;28;19917;-35
2022/02/12 10:37:18;;;;;;;12.65;3.42;;;;;;;2.20;80.28;102866.44;5055409;28;20061;-34
2022/02/12 10:39:51;;;;;;;8.18;3.22;;;;;;;2.36;80.67;102858.00;5056687;28;20025;-34
2022/02/12 10:42:17;;;;;;;12.98;3.67;;;;;;;2.67;81.18;102857.09;5056280;28;20021;-34
2022/02/12 10:44:44;;;;;;;11.10;3.30;;;;;;;2.83;79.69;102832.59;5056565;28;20442;-35
2022/02/12 10:47:13;;;;;;;10.85;3.80;;;;;;;3.19;79.80;102843.75;5056544;28;20033;-35
2022/02/12 10:49:39;;;;;;;12.65;4.18;;;;;;;3.35;77.98;102844.94;5057047;28;20033;-34
2022/02/12 10:52:04;;;;;;;12.93;3.80;;;;;;;3.42;75.93;102837.25;5055929;28;20485;-35
2022/02/12 10:54:39;;;;;;;11.63;4.00;;;;;;;3.65;76.16;102840.53;5056759;28;20052;-34
2022/02/12 10:57:06;;;;;;;13.00;3.97;;;;;;;3.66;74.60;102831.56;5056259;28;20384;-35
2022/02/12 10:59:33;;;;;;;7.18;3.45;;;;;;;3.70;74.59;102816.03;5056606;28;20033;-34
2022/02/12 11:01:58;;;;;;;9.88;3.28;;;;;;;3.88;73.95;102823.28;5055279;28;20120;-34
2022/02/12 11:04:26;;;;;;;7.95;3.38;;;;;;;4.08;75.06;102820.63;5056346;28;20025;-35
2022/02/12 11:06:51;;;;;;;7.82;3.25;;;;;;;4.26;74.99;102826.97;5056300;28;20113;-34
2022/02/12 11:09:20;;;;;;;8.77;3.28;;;;;;;4.19;75.18;102803.56;5055959;28;20454;-34
2022/02/12 11:11:47;;;;;;;9.13;3.20;;;;;;;4.24;72.43;102820.88;5056214;28;20032;-34
2022/02/12 11:14:13;;;;;;;;;;;;;;;4.34;74.08;102819.09;5056969;28;20029;-35
2022/02/12 11:16:40;;;;;;;10.32;3.42;;;;;;;4.29;71.30;102797.22;5056052;28;19908;-35
2022/02/12 11:19:06;;;;;;;9.52;3.35;;;;;;;4.54;69.72;102813.69;5056104;28;20025;-35
2022/02/12 11:21:37;;;;;;;8.07;3.17;;;;;;;4.67;70.22;102800.81;5056194;28;20116;-35
2022/02/12 11:24:05;;;;;;;9.82;3.40;;;;;;;4.83;70.98;102802.91;5055805;28;20125;-35
2022/02/12 11:26:41;;;;;;;8.70;3.17;;;;;;;4.94;68.18;102801.91;5055281;28;20049;-34